Bourbon, Indiana
Current Conditions -  °F | °C
As of 4:35 AM on Monday 24 Nov 2014 (Local Time) from KASW Reporting Station
Moderate Rain Moderate Rain  
Wind Chill: 52°   Ceiling: 500
Heat Index: 52°   Visibility: 5mi
Dew Point: 50°   Wind: 6mph
Humidity: 94%   Direction: 220°SW
Pressure: 29.15"   Gusts: NA
Location:  41.3°N, 86.12°W
Report Text: KASW 240935Z AUTO 22005KT 5SM RA OVC005 11/10 A2915 RMK AO2
Loading
Personal Weather Stations






























Interactive Weather Map New forecast layout! Learn more

10-Day Weather Forecast

Advertisements
Track Severe Weather on mobile